Terminal Aerodrome Forecast
Issued by NWS Jackson, MS

Home | Current Version | Previous Version | Text Only | Print | Product List | Glossary On
Versions: 1 2 3 4 5 6 7 8 9 10 11 12 13 14 15 16 17 18 19 20
000
FTUS44 KJAN 281100
TAFJAN
TAF
KJAN 281120Z 2812/0112 05003KT P6SM FEW110
     FM281600 08008KT P6SM SCT080
     FM010700 11003KT P6SM OVC025
     FM010900 11003KT P6SM OVC015=

USA.gov is the U.S. government's official web portal to all federal, state and local government web resources and services.